createdAt,value
2023-03-29T00:00:46.211Z,96732.84
2023-03-29T00:03:37.349Z,96742.63
2023-03-29T00:06:22.455Z,96732.00
2023-03-29T00:08:54.364Z,96739.97
2023-03-29T00:11:22.367Z,96754.22
2023-03-29T00:13:49.296Z,96743.56
2023-03-29T00:16:15.907Z,96744.44
2023-03-29T00:18:42.496Z,96720.63
2023-03-29T00:21:10.754Z,96754.22
2023-03-29T00:23:37.625Z,96754.22
2023-03-29T00:26:05.946Z,96764.84
2023-03-29T00:28:34.373Z,96768.38
2023-03-29T00:31:07.991Z,96750.69
2023-03-29T00:33:34.556Z,96748.03
2023-03-29T00:36:01.860Z,96743.69
2023-03-29T00:38:28.526Z,96744.53
2023-03-29T00:40:54.987Z,96741.97
2023-03-29T00:43:21.499Z,96736.66
2023-03-29T00:45:48.055Z,96733.97
2023-03-29T00:48:18.619Z,96748.13
2023-03-29T00:50:49.353Z,96744.63
2023-03-29T00:53:26.841Z,96748.25
2023-03-29T00:55:56.284Z,96753.56
2023-03-29T00:58:24.535Z,96739.41
2023-03-29T01:00:52.943Z,96724.41
2023-03-29T01:03:24.702Z,96713.75
2023-03-29T01:05:52.063Z,96713.75
2023-03-29T01:08:26.483Z,96706.72
2023-03-29T01:11:13.285Z,96696.06
2023-03-29T01:13:47.662Z,96688.19
2023-03-29T01:16:14.578Z,96686.41
2023-03-29T01:18:41.994Z,96681.94
2023-03-29T01:21:14.714Z,96682.78
2023-03-29T01:23:43.537Z,96673.97
2023-03-29T01:26:12.934Z,96674.88
2023-03-29T01:28:40.708Z,96662.56
2023-03-29T01:31:11.795Z,96671.38
2023-03-29T01:33:45.168Z,96665.97
2023-03-29T01:36:23.286Z,96666.81
2023-03-29T01:38:54.603Z,96666.72
2023-03-29T01:41:21.068Z,96666.56
2023-03-29T01:43:47.468Z,96662.06
2023-03-29T01:46:32.784Z,96652.28
2023-03-29T01:49:00.097Z,96648.47
2023-03-29T01:51:40.447Z,96650.94
2023-03-29T01:54:15.127Z,96628.50
2023-03-29T01:56:41.902Z,96667.34
2023-03-29T01:59:09.633Z,96671.53
2023-03-29T02:01:38.420Z,96651.88
2023-03-29T02:04:06.579Z,96634.84
2023-03-29T02:06:33.230Z,96655.81
2023-03-29T02:09:00.237Z,96650.31
2023-03-29T02:11:29.343Z,96642.03
2023-03-29T02:13:59.159Z,96628.53
2023-03-29T02:16:25.729Z,96646.94
2023-03-29T02:18:52.885Z,96664.31
2023-03-29T02:21:22.014Z,96656.16
2023-03-29T02:23:49.163Z,96654.25
2023-03-29T02:26:15.689Z,96651.38
2023-03-29T02:28:42.287Z,96647.56
2023-03-29T02:31:21.262Z,96647.34
2023-03-29T02:33:58.740Z,96645.34
2023-03-29T02:36:35.749Z,96643.31
2023-03-29T02:39:03.831Z,96635.25
2023-03-29T02:41:31.398Z,96632.34
2023-03-29T02:43:59.472Z,96627.78
2023-03-29T02:46:26.890Z,96627.69
2023-03-29T02:48:53.583Z,96621.28
2023-03-29T02:51:21.060Z,96626.50
2023-03-29T02:53:52.295Z,96619.25
2023-03-29T02:56:19.726Z,96611.06
2023-03-29T02:58:46.330Z,96609.16
2023-03-29T03:01:13.412Z,96611.59
2023-03-29T03:03:39.938Z,96606.16
2023-03-29T03:06:06.953Z,96614.72
2023-03-29T03:08:33.420Z,96610.97
2023-03-29T03:11:00.156Z,96605.44
2023-03-29T03:13:27.203Z,96600.88
2023-03-29T03:15:54.125Z,96590.00
2023-03-29T03:18:20.745Z,96594.38
2023-03-29T03:21:01.705Z,96586.16
2023-03-29T03:23:29.572Z,96580.63
2023-03-29T03:25:56.657Z,96594.59
2023-03-29T03:28:27.416Z,96595.34
2023-03-29T03:30:54.608Z,96598.75
2023-03-29T03:33:41.303Z,96592.34
2023-03-29T03:36:28.976Z,96580.63
2023-03-29T03:38:57.035Z,96581.38
2023-03-29T03:41:23.683Z,96585.63
2023-03-29T03:43:50.596Z,96579.31
2023-03-29T03:46:17.416Z,96573.16
2023-03-29T03:48:44.801Z,96565.25
2023-03-29T03:51:18.384Z,96566.88
2023-03-29T03:53:44.993Z,96574.63
2023-03-29T03:56:14.185Z,96564.72
2023-03-29T03:59:01.074Z,96571.66
2023-03-29T04:01:30.492Z,96576.75
2023-03-29T04:04:08.355Z,96561.41
2023-03-29T04:06:35.164Z,96566.63
2023-03-29T04:09:27.556Z,96570.88
2023-03-29T04:12:09.146Z,96574.28
2023-03-29T04:14:36.192Z,96567.91
2023-03-29T04:17:05.908Z,96559.75
2023-03-29T04:19:47.129Z,96565.84
2023-03-29T04:22:13.659Z,96559.56
2023-03-29T04:24:40.091Z,96559.44
2023-03-29T04:27:23.059Z,96552.19
2023-03-29T04:29:49.756Z,96553.88
2023-03-29T04:32:27.338Z,96543.94
2023-03-29T04:35:07.030Z,96546.41
2023-03-29T04:37:34.014Z,96542.66
2023-03-29T04:40:01.163Z,96534.53
2023-03-29T04:42:34.220Z,96540.63
2023-03-29T04:45:01.000Z,96549.34
2023-03-29T04:47:45.793Z,96538.59
2023-03-29T04:50:16.637Z,96543.84
2023-03-29T04:52:45.536Z,96547.25
2023-03-29T04:55:12.742Z,96542.75
2023-03-29T04:58:00.145Z,96538.25
2023-03-29T05:00:38.613Z,96537.19
2023-03-29T05:03:43.304Z,96531.72
2023-03-29T05:06:19.114Z,96536.00
2023-03-29T05:08:46.205Z,96536.84
2023-03-29T05:11:20.349Z,96542.09
2023-03-29T05:13:47.133Z,96539.31
2023-03-29T05:16:13.731Z,96532.88
2023-03-29T05:18:40.754Z,96536.19
2023-03-29T05:21:07.610Z,96539.78
2023-03-29T05:23:36.538Z,96543.19
2023-03-29T05:26:22.336Z,96542.25
2023-03-29T05:28:52.300Z,96539.47
2023-03-29T05:31:19.912Z,96540.22
2023-03-29T05:33:50.769Z,96533.03
2023-03-29T05:36:19.038Z,96529.28
2023-03-29T05:38:49.205Z,96523.00
2023-03-29T05:41:16.054Z,96528.09
2023-03-29T05:44:06.226Z,96521.81
2023-03-29T05:46:33.300Z,96520.81
2023-03-29T05:49:02.482Z,96525.19
2023-03-29T05:51:47.345Z,96519.97
2023-03-29T05:54:15.119Z,96512.06
2023-03-29T05:56:41.926Z,96517.53
2023-03-29T05:59:08.745Z,96511.44
2023-03-29T06:01:35.852Z,96508.03
2023-03-29T06:04:06.541Z,96506.34
2023-03-29T06:06:40.636Z,96501.34
2023-03-29T06:09:07.398Z,96504.16
2023-03-29T06:11:36.809Z,96502.44
2023-03-29T06:14:10.378Z,96494.69
2023-03-29T06:16:44.908Z,96506.41
2023-03-29T06:19:12.895Z,96503.13
2023-03-29T06:21:41.210Z,96514.88
2023-03-29T06:24:10.067Z,96507.97
2023-03-29T06:26:42.150Z,96515.22
2023-03-29T06:29:09.154Z,96511.81
2023-03-29T06:31:36.411Z,96514.69
2023-03-29T06:34:05.931Z,96504.09
2023-03-29T06:36:52.900Z,96502.63
2023-03-29T06:39:20.778Z,96513.41
2023-03-29T06:42:20.076Z,96511.94
2023-03-29T06:45:07.050Z,96517.41
2023-03-29T06:47:33.675Z,96514.84
2023-03-29T06:50:00.193Z,96511.44
2023-03-29T06:52:31.570Z,96511.66
2023-03-29T06:54:58.394Z,96510.91
2023-03-29T06:57:25.689Z,96511.03
2023-03-29T06:59:53.189Z,96507.50
2023-03-29T07:02:26.169Z,96516.59
2023-03-29T07:04:56.204Z,96513.28
2023-03-29T07:07:58.234Z,96516.31
2023-03-29T07:10:53.230Z,96523.22
2023-03-29T07:13:19.831Z,96536.09
2023-03-29T07:15:48.816Z,96542.72
2023-03-29T07:18:21.837Z,96548.44
2023-03-29T07:20:48.526Z,96547.97
2023-03-29T07:23:15.035Z,96554.69
2023-03-29T07:25:41.819Z,96551.84
2023-03-29T07:28:09.154Z,96553.31
2023-03-29T07:30:37.176Z,96554.91
2023-03-29T07:33:22.581Z,96552.97
2023-03-29T07:35:55.627Z,96546.69
2023-03-29T07:38:22.766Z,96553.69
2023-03-29T07:40:56.225Z,96553.59
2023-03-29T07:43:34.880Z,96551.78
2023-03-29T07:46:01.879Z,96538.44
2023-03-29T07:48:30.074Z,96550.81
2023-03-29T07:51:00.834Z,96544.50
2023-03-29T07:53:33.212Z,96547.16
2023-03-29T07:56:03.164Z,96544.50
2023-03-29T07:58:44.489Z,96546.34
2023-03-29T08:01:17.141Z,96548.16
2023-03-29T08:03:58.637Z,96549.09
2023-03-29T08:06:45.592Z,96549.00
2023-03-29T08:09:12.867Z,96550.81
2023-03-29T08:11:42.409Z,96544.66
2023-03-29T08:14:25.925Z,96547.31
2023-03-29T08:16:58.843Z,96542.91
2023-03-29T08:19:26.226Z,96549.09
2023-03-29T08:22:13.072Z,96548.25
2023-03-29T08:25:00.619Z,96548.25
2023-03-29T08:27:33.080Z,96550.09
2023-03-29T08:30:01.036Z,96543.88
2023-03-29T08:32:28.256Z,96549.22
2023-03-29T08:34:55.205Z,96547.53
2023-03-29T08:37:25.896Z,96550.09
2023-03-29T08:39:55.176Z,96548.25
2023-03-29T08:42:52.058Z,96553.59
2023-03-29T08:45:22.949Z,96552.75
2023-03-29T08:47:52.639Z,96550.09
2023-03-29T08:50:21.036Z,96548.38
2023-03-29T08:52:49.911Z,96552.75
2023-03-29T08:55:36.426Z,96544.75
2023-03-29T08:58:24.489Z,96548.25
2023-03-29T09:00:53.461Z,96546.53
2023-03-29T09:03:23.366Z,96550.19
2023-03-29T09:05:56.674Z,96545.81
2023-03-29T09:08:25.724Z,96544.13
2023-03-29T09:11:04.710Z,96539.63
2023-03-29T09:13:53.003Z,96543.13
2023-03-29T09:16:22.905Z,96544.97
2023-03-29T09:19:10.001Z,96544.13
2023-03-29T09:21:51.613Z,96545.81
2023-03-29T09:24:37.424Z,96551.28
2023-03-29T09:27:26.724Z,96544.22
2023-03-29T09:30:06.741Z,96538.88
2023-03-29T09:32:51.671Z,96536.22
2023-03-29T09:35:24.070Z,96540.72
2023-03-29T09:37:52.627Z,96545.06
2023-03-29T09:40:21.169Z,96552.22
2023-03-29T09:43:01.304Z,96551.38
2023-03-29T09:45:28.389Z,96549.66
2023-03-29T09:47:59.116Z,96538.03
2023-03-29T09:50:34.017Z,96539.00
2023-03-29T09:53:03.844Z,96533.66
2023-03-29T09:55:33.849Z,96534.53
2023-03-29T09:58:25.386Z,96531.00
2023-03-29T10:00:54.064Z,96523.97
2023-03-29T10:03:27.430Z,96526.63
2023-03-29T10:06:09.666Z,96531.13
2023-03-29T10:08:40.756Z,96523.13
2023-03-29T10:11:20.481Z,96521.31
2023-03-29T10:13:47.599Z,96522.25
2023-03-29T10:16:21.350Z,96521.41
2023-03-29T10:18:50.138Z,96523.13
2023-03-29T10:21:17.187Z,96514.25
2023-03-29T10:23:43.987Z,96517.78
2023-03-29T10:26:13.114Z,96524.06
2023-03-29T10:28:39.992Z,96511.59
2023-03-29T10:31:08.234Z,96503.56
2023-03-29T10:33:35.439Z,96508.06
2023-03-29T10:36:03.729Z,96502.72
2023-03-29T10:38:30.419Z,96502.72
2023-03-29T10:41:07.973Z,96508.06
2023-03-29T10:43:38.471Z,96495.56
2023-03-29T10:46:15.095Z,96491.22
2023-03-29T10:48:46.025Z,96491.22
2023-03-29T10:51:13.767Z,96490.34
2023-03-29T10:53:41.085Z,96488.56
2023-03-29T10:56:27.075Z,96492.91
2023-03-29T10:58:56.457Z,96490.34
2023-03-29T11:01:34.744Z,96493.00
2023-03-29T11:04:07.902Z,96491.22
2023-03-29T11:06:45.446Z,96492.16
2023-03-29T11:09:27.607Z,96476.16
2023-03-29T11:12:12.212Z,96482.59
2023-03-29T11:14:54.629Z,96491.44
2023-03-29T11:17:30.551Z,96489.50
2023-03-29T11:20:09.201Z,96487.56
2023-03-29T11:22:35.721Z,96497.91
2023-03-29T11:25:08.252Z,96499.50
2023-03-29T11:27:42.023Z,96502.06
2023-03-29T11:30:08.600Z,96504.63
2023-03-29T11:32:41.152Z,96512.38
2023-03-29T11:35:27.179Z,96514.09
2023-03-29T11:38:06.026Z,96508.63
2023-03-29T11:40:42.715Z,96505.84
2023-03-29T11:43:15.261Z,96519.06
2023-03-29T11:45:43.544Z,96515.47
2023-03-29T11:48:14.172Z,96514.47
2023-03-29T11:50:51.281Z,96511.69
2023-03-29T11:53:23.079Z,96512.53
2023-03-29T11:55:49.694Z,96511.59
2023-03-29T11:58:17.761Z,96509.75
2023-03-29T12:00:45.720Z,96515.84
2023-03-29T12:03:15.480Z,96517.53
2023-03-29T12:05:43.516Z,96503.22
2023-03-29T12:08:13.962Z,96501.41
2023-03-29T12:10:50.723Z,96488.78
2023-03-29T12:13:25.293Z,96491.47
2023-03-29T12:16:02.742Z,96483.34
2023-03-29T12:18:30.675Z,96487.84
2023-03-29T12:21:00.497Z,96478.09
2023-03-29T12:23:29.789Z,96476.44
2023-03-29T12:26:02.358Z,96470.25
2023-03-29T12:28:34.937Z,96465.84
2023-03-29T12:31:04.887Z,96460.63
2023-03-29T12:33:50.529Z,96463.41
2023-03-29T12:36:35.808Z,96456.38
2023-03-29T12:39:26.824Z,96456.50
2023-03-29T12:42:19.649Z,96451.28
2023-03-29T12:45:20.028Z,96446.19
2023-03-29T12:47:47.288Z,96428.47
2023-03-29T12:50:24.834Z,96446.28
2023-03-29T12:52:51.280Z,96434.78
2023-03-29T12:55:21.996Z,96430.38
2023-03-29T12:58:09.672Z,96431.38
2023-03-29T13:00:36.250Z,96427.84
2023-03-29T13:03:06.346Z,96426.16
2023-03-29T13:05:34.568Z,96418.16
2023-03-29T13:08:11.314Z,96424.44
2023-03-29T13:10:39.923Z,96427.09
2023-03-29T13:13:11.559Z,96417.41
2023-03-29T13:15:38.021Z,96418.38
2023-03-29T13:18:12.353Z,96410.34
2023-03-29T13:20:42.112Z,96417.53
2023-03-29T13:23:27.057Z,96410.47
2023-03-29T13:26:09.448Z,96398.22
2023-03-29T13:28:56.573Z,96392.03
2023-03-29T13:31:44.189Z,96390.31
2023-03-29T13:34:10.801Z,96384.25
2023-03-29T13:36:54.183Z,96391.41
2023-03-29T13:39:31.011Z,96400.41
2023-03-29T13:42:08.116Z,96403.91
2023-03-29T13:44:45.526Z,96390.69
2023-03-29T13:47:29.040Z,96382.56
2023-03-29T13:50:04.290Z,96379.91
2023-03-29T13:52:32.120Z,96379.91
2023-03-29T13:54:58.543Z,96371.06
2023-03-29T13:57:26.648Z,96374.56
2023-03-29T13:59:59.797Z,96375.41
2023-03-29T14:02:35.242Z,96376.41
2023-03-29T14:05:02.179Z,96373.59
2023-03-29T14:07:29.001Z,96373.84
2023-03-29T14:09:56.051Z,96358.16
2023-03-29T14:12:22.542Z,96356.66
2023-03-29T14:14:58.749Z,96361.53
2023-03-29T14:17:26.015Z,96355.91
2023-03-29T14:19:53.042Z,96353.84
2023-03-29T14:22:20.029Z,96352.22
2023-03-29T14:24:49.157Z,96350.88
2023-03-29T14:27:16.011Z,96342.59
2023-03-29T14:29:44.465Z,96358.59
2023-03-29T14:32:12.529Z,96346.34
2023-03-29T14:34:39.343Z,96343.06
2023-03-29T14:37:06.579Z,96339.56
2023-03-29T14:39:33.290Z,96341.50
2023-03-29T14:41:59.769Z,96341.50
2023-03-29T14:44:30.049Z,96342.44
2023-03-29T14:46:56.625Z,96341.50
2023-03-29T14:49:23.165Z,96337.22
2023-03-29T14:51:50.321Z,96338.09
2023-03-29T14:54:21.018Z,96332.75
2023-03-29T14:56:48.602Z,96336.28
2023-03-29T14:59:23.627Z,96332.63
2023-03-29T15:01:50.179Z,96337.09
2023-03-29T15:04:16.660Z,96327.44
2023-03-29T15:06:44.860Z,96348.75
2023-03-29T15:09:14.005Z,96336.38
2023-03-29T15:11:40.733Z,96332.88
2023-03-29T15:14:08.607Z,96336.38
2023-03-29T15:16:42.203Z,96337.34
2023-03-29T15:19:11.185Z,96337.34
2023-03-29T15:21:38.048Z,96324.97
2023-03-29T15:24:04.754Z,96324.97
2023-03-29T15:26:35.103Z,96331.16
2023-03-29T15:29:02.991Z,96330.41
2023-03-29T15:31:33.263Z,96325.19
2023-03-29T15:34:05.683Z,96318.91
2023-03-29T15:36:33.461Z,96319.44
2023-03-29T15:38:59.940Z,96331.31
2023-03-29T15:41:27.624Z,96332.56
2023-03-29T15:43:54.904Z,96340.09
2023-03-29T15:46:21.600Z,96341.47
2023-03-29T15:48:48.044Z,96348.25
2023-03-29T15:51:14.493Z,96339.91
2023-03-29T15:53:40.947Z,96343.31
2023-03-29T15:56:07.988Z,96344.16
2023-03-29T15:58:34.454Z,96341.25
2023-03-29T16:01:02.497Z,96340.31
2023-03-29T16:03:29.169Z,96349.03
2023-03-29T16:05:56.909Z,96341.66
2023-03-29T16:08:23.947Z,96346.00
2023-03-29T16:10:50.489Z,96346.88
2023-03-29T16:13:16.940Z,96341.66
2023-03-29T16:15:43.461Z,96338.00
2023-03-29T16:18:09.931Z,96335.22
2023-03-29T16:20:38.110Z,96350.16
2023-03-29T16:23:09.157Z,96348.13
2023-03-29T16:25:37.389Z,96343.50
2023-03-29T16:28:05.851Z,96344.25
2023-03-29T16:30:32.570Z,96352.97
2023-03-29T16:32:59.038Z,96358.19
2023-03-29T16:35:26.753Z,96355.41
2023-03-29T16:37:53.280Z,96357.97
2023-03-29T16:40:21.102Z,96353.50
2023-03-29T16:42:47.692Z,96356.03
2023-03-29T16:45:14.572Z,96359.56
2023-03-29T16:47:44.492Z,96365.72
2023-03-29T16:50:14.855Z,96359.31
2023-03-29T16:52:41.555Z,96359.31
2023-03-29T16:55:08.856Z,96353.13
2023-03-29T16:57:35.783Z,96351.31
2023-03-29T17:00:02.260Z,96352.16
2023-03-29T17:02:28.773Z,96359.19
2023-03-29T17:04:55.399Z,96353.84
2023-03-29T17:07:21.889Z,96350.34
2023-03-29T17:09:48.447Z,96357.41
2023-03-29T17:12:14.868Z,96355.56
2023-03-29T17:14:41.889Z,96355.56
2023-03-29T17:17:08.382Z,96342.34
2023-03-29T17:19:34.828Z,96341.50
2023-03-29T17:22:01.316Z,96346.84
2023-03-29T17:24:27.843Z,96345.84
2023-03-29T17:26:54.358Z,96359.19
2023-03-29T17:29:20.796Z,96356.53
2023-03-29T17:31:47.669Z,96355.69
2023-03-29T17:34:15.189Z,96367.09
2023-03-29T17:36:41.650Z,96361.75
2023-03-29T17:39:09.458Z,96354.59
2023-03-29T17:41:36.087Z,96361.63
2023-03-29T17:44:02.579Z,96356.06
2023-03-29T17:46:29.117Z,96361.25
2023-03-29T17:48:56.038Z,96368.44
2023-03-29T17:51:23.623Z,96358.59
2023-03-29T17:53:52.353Z,96369.16
2023-03-29T17:56:22.729Z,96362.88
2023-03-29T17:58:49.510Z,96358.47
2023-03-29T18:01:16.707Z,96355.81
2023-03-29T18:03:43.272Z,96362.00
2023-03-29T18:06:09.777Z,96361.16
2023-03-29T18:08:36.240Z,96367.22
2023-03-29T18:11:10.886Z,96358.38
2023-03-29T18:13:41.012Z,96361.03
2023-03-29T18:16:08.521Z,96357.53
2023-03-29T18:18:37.247Z,96364.56
2023-03-29T18:21:03.962Z,96370.72
2023-03-29T18:23:30.410Z,96368.94
2023-03-29T18:26:02.762Z,96376.94
2023-03-29T18:28:32.764Z,96378.75
2023-03-29T18:30:59.336Z,96375.13
2023-03-29T18:33:25.969Z,96373.41
2023-03-29T18:35:52.497Z,96372.56
2023-03-29T18:38:20.031Z,96374.38
2023-03-29T18:40:47.122Z,96381.41
2023-03-29T18:43:13.689Z,96384.94
2023-03-29T18:45:40.328Z,96379.72
2023-03-29T18:48:07.870Z,96375.34
2023-03-29T18:50:34.952Z,96376.94
2023-03-29T18:53:01.656Z,96383.13
2023-03-29T18:55:28.615Z,96393.78
2023-03-29T18:57:55.798Z,96389.41
2023-03-29T19:00:22.305Z,96396.47
2023-03-29T19:02:48.861Z,96397.19
2023-03-29T19:05:15.572Z,96387.38
2023-03-29T19:07:42.062Z,96386.41
2023-03-29T19:10:08.603Z,96374.88
2023-03-29T19:12:35.445Z,96377.41
2023-03-29T19:15:01.960Z,96382.75
2023-03-29T19:17:28.546Z,96371.22
2023-03-29T19:19:56.504Z,96374.75
2023-03-29T19:22:23.023Z,96368.56
2023-03-29T19:24:49.723Z,96378.16
2023-03-29T19:27:16.528Z,96376.34
2023-03-29T19:29:43.110Z,96371.00
2023-03-29T19:32:09.641Z,96367.47
2023-03-29T19:34:36.187Z,96362.13
2023-03-29T19:37:02.694Z,96360.34
2023-03-29T19:39:29.807Z,96358.50
2023-03-29T19:41:56.504Z,96349.50
2023-03-29T19:44:26.053Z,96339.81
2023-03-29T19:46:52.635Z,96356.69
2023-03-29T19:49:19.199Z,96357.53
2023-03-29T19:51:46.028Z,96356.56
2023-03-29T19:54:13.210Z,96351.22
2023-03-29T19:56:39.733Z,96360.94
2023-03-29T19:59:06.354Z,96361.78
2023-03-29T20:01:32.927Z,96356.44
2023-03-29T20:03:59.610Z,96357.41
2023-03-29T20:06:26.246Z,96349.41
2023-03-29T20:08:52.868Z,96351.22
2023-03-29T20:11:23.671Z,96351.22
2023-03-29T20:13:50.346Z,96351.22
2023-03-29T20:16:17.320Z,96346.72
2023-03-29T20:18:46.850Z,96349.41
2023-03-29T20:21:13.977Z,96350.28
2023-03-29T20:23:40.504Z,96347.72
2023-03-29T20:26:07.394Z,96349.41
2023-03-29T20:28:34.445Z,96342.25
2023-03-29T20:31:05.420Z,96336.06
2023-03-29T20:33:32.244Z,96335.94
2023-03-29T20:35:58.893Z,96341.63
2023-03-29T20:38:25.555Z,96335.84
2023-03-29T20:40:51.980Z,96337.75
2023-03-29T20:43:18.878Z,96330.28
2023-03-29T20:45:52.543Z,96314.00
2023-03-29T20:48:23.073Z,96319.09
2023-03-29T20:50:50.008Z,96318.97
2023-03-29T20:53:18.112Z,96311.81
2023-03-29T20:55:44.818Z,96310.97
2023-03-29T20:58:11.761Z,96300.41
2023-03-29T21:00:38.248Z,96288.03
2023-03-29T21:03:04.838Z,96281.81
2023-03-29T21:05:32.186Z,96280.97
2023-03-29T21:07:58.759Z,96283.75
2023-03-29T21:10:25.786Z,96276.75
2023-03-29T21:12:52.510Z,96283.88
2023-03-29T21:15:19.765Z,96274.19
2023-03-29T21:17:47.394Z,96270.69
2023-03-29T21:20:14.248Z,96276.88
2023-03-29T21:22:42.835Z,96274.19
2023-03-29T21:25:10.071Z,96270.69
2023-03-29T21:27:37.085Z,96274.19
2023-03-29T21:30:06.883Z,96260.00
2023-03-29T21:32:34.244Z,96268.97
2023-03-29T21:35:00.782Z,96256.56
2023-03-29T21:37:27.288Z,96268.13
2023-03-29T21:39:53.775Z,96265.53
2023-03-29T21:42:20.248Z,96259.34
2023-03-29T21:44:46.754Z,96255.84
2023-03-29T21:47:13.252Z,96255.84
2023-03-29T21:49:39.674Z,96251.34
2023-03-29T21:52:07.108Z,96254.84
2023-03-29T21:54:33.794Z,96249.53
2023-03-29T21:57:00.477Z,96243.34
2023-03-29T21:59:27.861Z,96244.28
2023-03-29T22:01:54.423Z,96240.78
2023-03-29T22:04:35.391Z,96241.78
2023-03-29T22:07:03.438Z,96236.44
2023-03-29T22:09:29.904Z,96234.59
2023-03-29T22:11:56.900Z,96224.03
2023-03-29T22:14:24.148Z,96224.75
2023-03-29T22:16:50.833Z,96222.22
2023-03-29T22:19:17.347Z,96217.75
2023-03-29T22:21:44.080Z,96224.03
2023-03-29T22:24:10.560Z,96225.88
2023-03-29T22:26:37.047Z,96227.66
2023-03-29T22:29:03.567Z,96221.59
